Weather History for Beaver Island, MI

Change the Weather History Date:

Tuesday, June 18, 2013

  Actual Average Record
Temperature  
Mean Temperature 49 °F -  
Max Temperature 64 °F 70 °F 87 °F (2007)
Min Temperature 34 °F 49 °F 34 °F (2013)
Degree Days  
Heating Degree Days 16    
Moisture  
Dew Point 38 °F    
Average Humidity 67    
Maximum Humidity 100    
Minimum Humidity 31    
Precipitation  
Precipitation 0.00 in - - ()
Sea Level Pressure  
Sea Level Pressure 30.11 in    
Wind  
Wind Speed 5 mph (NE)    
Max Wind Speed 13 mph    
Max Gust Speed 16 mph    
Visibility 10 miles    
Events      
Averages and records for this station are not official NWS values.
T = Trace of Precipitation, MM = Missing Value Source: NWS Daily Summary

Daily Weather History Graph

Daily Weather History Graph

Search for Another Location

Airport:

Trip Planner

Search our weather history database for the weather conditions in past years. The results will help you decide how hot, cold, wet, or windy it might be!

Date:

Astronomy

Jun. 18, 2013 Rise Set
Actual Time 5:52 AM EDT 9:34 PM EDT
Civil Twilight 5:14 AM EDT 10:13 PM EDT
Nautical Twilight 4:22 AM EDT 11:04 PM EDT
Astronomical Twilight 3:12 AM EDT 12:14 AM EDT
Moon 4:06 PM EDT (6/18) 2:14 AM EDT (6/18)
Length of Visible Light 16h 58m
Length of Day
15h 42m
Waxing Gibbous, 70% of the Moon is Illuminated
Jun 18
Waxing Gibbous
Jun 23
Full
Jun 30
Last Quarter
Jul 8
New
Jul 15
First Quarter

Hourly Weather History & Observations

Time (EDT) Temp. Windchill Dew Point Humidity Pressure Visibility Wind Dir Wind Speed Gust Speed Precip Events Conditions
12:15 AM 46.4 °F 42.9 °F 41.0 °F 81% 30.05 in 10.0 mi NNE 6.9 mph - N/A   Mostly Cloudy
12:34 AM 46.0 °F 43.9 °F 40.3 °F 80% 30.05 in 10.0 mi North 4.6 mph - N/A   Scattered Clouds
12:55 AM 45.0 °F 43.5 °F 39.9 °F 82% 30.05 in 10.0 mi NNE 3.5 mph - N/A   Clear
1:15 AM 45.1 °F 43.7 °F 40.1 °F 82% 30.06 in 10.0 mi North 3.5 mph - N/A   Mostly Cloudy
1:35 AM 45.0 °F 41.8 °F 40.3 °F 84% 30.06 in 10.0 mi North 5.8 mph - N/A   Mostly Cloudy
1:55 AM 43.3 °F 41.7 °F 39.0 °F 85% 30.06 in 10.0 mi North 3.5 mph - N/A   Scattered Clouds
2:14 AM 42.1 °F - 39.0 °F 89% 30.06 in 10.0 mi Calm Calm - N/A   Clear
2:35 AM 37.9 °F - 36.5 °F 95% 30.06 in 10.0 mi Calm Calm - N/A   Clear
2:55 AM 38.1 °F - 37.4 °F 97% 30.06 in 10.0 mi Calm Calm - N/A   Clear
3:14 AM 36.3 °F 33.7 °F 35.2 °F 96% 30.06 in 10.0 mi North 3.5 mph - N/A   Clear
3:35 AM 39.6 °F 37.4 °F 36.9 °F 90% 30.06 in 10.0 mi North 3.5 mph - N/A   Clear
3:55 AM 40.5 °F 38.4 °F 37.4 °F 89% 30.05 in 10.0 mi North 3.5 mph - N/A   Clear
4:15 AM 39.6 °F - 37.4 °F 92% 30.06 in 10.0 mi Calm Calm - N/A   Clear
4:34 AM 37.0 °F - 36.0 °F 96% 30.06 in 10.0 mi Calm Calm - N/A   Clear
4:55 AM 36.3 °F - 36.0 °F 99% 30.06 in 10.0 mi Calm Calm - N/A   Clear
5:15 AM 35.8 °F - 35.1 °F 97% 30.06 in 10.0 mi Calm Calm - N/A   Clear
5:34 AM 35.2 °F - 34.9 °F 99% 30.07 in 10.0 mi Calm Calm - N/A   Clear
5:55 AM 34.9 °F - 34.9 °F 100% 30.07 in 10.0 mi Calm Calm - N/A   Clear
6:15 AM 35.8 °F - 35.8 °F 100% 30.08 in 10.0 mi Calm Calm - N/A   Clear
6:35 AM 36.5 °F - 36.5 °F 100% 30.08 in 10.0 mi Calm Calm - N/A   Clear
6:55 AM 38.7 °F - 38.7 °F 100% 30.09 in 10.0 mi Calm Calm - N/A   Clear
7:14 AM 41.4 °F - 41.2 °F 99% 30.09 in 10.0 mi Calm Calm - N/A   Clear
7:35 AM 46.0 °F 43.9 °F 44.1 °F 93% 30.10 in 10.0 mi ENE 4.6 mph - N/A   Clear
7:54 AM 48.9 °F - 44.4 °F 84% 30.10 in 10.0 mi ENE 6.9 mph - N/A   Clear
8:15 AM 50.0 °F - 43.9 °F 79% 30.11 in 10.0 mi NE 10.4 mph - N/A   Clear
8:34 AM 51.1 °F - 43.7 °F 76% 30.12 in 10.0 mi ENE 8.1 mph - N/A   Clear
8:55 AM 52.0 °F - 43.5 °F 73% 30.12 in 10.0 mi ENE 10.4 mph - N/A   Clear
9:15 AM 52.7 °F - 42.3 °F 68% 30.13 in 10.0 mi ENE 8.1 mph - N/A   Clear
9:35 AM 53.4 °F - 41.7 °F 65% 30.13 in 10.0 mi East 11.5 mph - N/A   Clear
9:55 AM 53.4 °F - 42.3 °F 66% 30.13 in 10.0 mi NE 8.1 mph - N/A   Clear
10:15 AM 55.2 °F - 41.4 °F 60% 30.14 in 10.0 mi East 10.4 mph - N/A   Clear
10:35 AM 56.1 °F - 40.6 °F 56% 30.14 in 10.0 mi ENE 6.9 mph - N/A   Clear
10:55 AM 57.4 °F - 41.5 °F 56% 30.14 in 10.0 mi ENE 11.5 mph 16.1 mph N/A   Clear
11:15 AM 57.2 °F - 41.7 °F 56% 30.15 in 10.0 mi ENE 11.5 mph 16.1 mph N/A   Clear
11:35 AM 57.6 °F - 41.9 °F 56% 30.15 in 10.0 mi ENE 12.7 mph - N/A   Clear
11:55 AM 58.1 °F - 39.7 °F 50% 30.15 in 10.0 mi ENE 11.5 mph 16.1 mph N/A   Clear
12:15 PM 58.8 °F - 37.8 °F 46% 30.15 in 10.0 mi ENE 10.4 mph - N/A   Clear
12:35 PM 60.3 °F - 36.0 °F 40% 30.15 in 10.0 mi ENE 10.4 mph - N/A   Clear
12:55 PM 60.4 °F - 35.4 °F 39% 30.15 in 10.0 mi East 11.5 mph 16.1 mph N/A   Clear
1:15 PM 61.2 °F - 36.0 °F 39% 30.14 in 10.0 mi ENE 6.9 mph - N/A   Clear
1:34 PM 61.9 °F - 34.9 °F 36% 30.14 in 10.0 mi East 8.1 mph - N/A   Clear
1:55 PM 62.2 °F - 33.8 °F 35% 30.13 in 10.0 mi East 6.9 mph - N/A   Clear
2:15 PM 62.4 °F - 33.4 °F 34% 30.13 in 10.0 mi East 8.1 mph - N/A   Clear
2:34 PM 63.1 °F - 34.5 °F 34% 30.13 in 10.0 mi East 5.8 mph - N/A   Clear
2:55 PM 62.2 °F - 33.6 °F 34% 30.13 in 10.0 mi East 5.8 mph - N/A   Clear
3:15 PM 63.5 °F - 33.8 °F 33% 30.13 in 10.0 mi East 8.1 mph - N/A   Clear
3:35 PM 62.8 °F - 33.8 °F 34% 30.12 in 10.0 mi East 5.8 mph - N/A   Clear
3:55 PM 63.1 °F - 33.1 °F 33% 30.13 in 10.0 mi East 8.1 mph - N/A   Clear
4:15 PM 63.7 °F - 32.4 °F 31% 30.12 in 10.0 mi East 3.5 mph - N/A   Clear
4:35 PM 64.6 °F - 35.4 °F 34% 30.12 in 10.0 mi WSW 4.6 mph - N/A   Clear
4:54 PM 64.6 °F - 35.6 °F 34% 30.12 in 10.0 mi WNW 3.5 mph - N/A   Clear
5:15 PM 63.9 °F - 36.5 °F 36% 30.12 in 10.0 mi West 8.1 mph - N/A   Clear
5:35 PM 63.7 °F - 35.4 °F 35% 30.12 in 10.0 mi West 6.9 mph - N/A   Clear
5:54 PM 62.6 °F - 37.0 °F 39% 30.12 in 10.0 mi WSW 6.9 mph - N/A   Clear
6:15 PM 62.2 °F - 37.6 °F 40% 30.12 in 10.0 mi West 6.9 mph - N/A   Clear
6:34 PM 61.7 °F - 37.6 °F 41% 30.12 in 10.0 mi WSW 5.8 mph - N/A   Clear
6:55 PM 60.6 °F - 36.7 °F 41% 30.12 in 10.0 mi WSW 5.8 mph - N/A   Clear
7:15 PM 60.8 °F - 36.9 °F 41% 30.12 in 10.0 mi WSW 6.9 mph - N/A   Clear
7:35 PM 59.5 °F - 37.8 °F 44% 30.13 in 10.0 mi WSW 6.9 mph - N/A   Clear
7:55 PM 58.6 °F - 37.9 °F 46% 30.12 in 10.0 mi West 5.8 mph - N/A   Clear
8:15 PM 55.2 °F - 39.7 °F 56% 30.12 in 10.0 mi Calm Calm - N/A   Clear
8:35 PM 53.6 °F - 44.4 °F 71% 30.13 in 10.0 mi NW 3.5 mph - N/A   Clear
8:55 PM 52.5 °F - 45.0 °F 75% 30.13 in 10.0 mi Calm Calm - N/A   Clear
9:14 PM 51.6 °F - 43.5 °F 74% 30.12 in 10.0 mi Calm Calm - N/A   Clear
9:35 PM 48.7 °F - 42.6 °F 79% 30.12 in 10.0 mi Calm Calm - N/A   Clear
9:55 PM 46.2 °F - 41.4 °F 83% 30.12 in 10.0 mi Calm Calm - N/A   Clear
10:15 PM 44.8 °F - 41.2 °F 87% 30.12 in 10.0 mi Calm Calm - N/A   Clear
10:35 PM 43.7 °F - 40.3 °F 88% 30.13 in 10.0 mi Calm Calm - N/A   Clear
10:55 PM 43.5 °F - 40.5 °F 89% 30.13 in 10.0 mi Calm Calm - N/A   Clear
11:15 PM 42.6 °F - 40.1 °F 91% 30.13 in 10.0 mi Calm Calm - N/A   Clear
11:35 PM 39.4 °F - 38.7 °F 97% 30.13 in 10.0 mi Calm Calm - N/A   Clear
11:54 PM 39.2 °F - 38.3 °F 97% 30.12 in 10.0 mi Calm Calm - N/A   Clear